sensor_id;sensor_type;location;lat;lon;timestamp;pressure;altitude;pressure_sealevel;temperature;humidity
84026;BME280;74110;45.660;25.582;2023-11-22T00:02:01;94699.64;;;6.73;74.43
84026;BME280;74110;45.660;25.582;2023-11-22T00:04:30;94701.96;;;6.72;74.63
84026;BME280;74110;45.660;25.582;2023-11-22T00:06:59;94700.27;;;6.70;74.92
84026;BME280;74110;45.660;25.582;2023-11-22T00:09:28;94694.14;;;6.66;75.27
84026;BME280;74110;45.660;25.582;2023-11-22T00:11:59;94694.84;;;6.65;75.47
84026;BME280;74110;45.660;25.582;2023-11-22T00:14:29;94690.63;;;6.64;75.40
84026;BME280;74110;45.660;25.582;2023-11-22T00:16:58;94693.36;;;6.60;75.73
84026;BME280;74110;45.660;25.582;2023-11-22T00:19:30;94692.17;;;6.58;75.55
84026;BME280;74110;45.660;25.582;2023-11-22T00:22:00;94693.41;;;6.59;75.36
84026;BME280;74110;45.660;25.582;2023-11-22T00:24:29;94695.04;;;6.57;75.35
84026;BME280;74110;45.660;25.582;2023-11-22T00:27:00;94694.67;;;6.60;75.37
84026;BME280;74110;45.660;25.582;2023-11-22T00:29:29;94691.19;;;6.61;75.41
84026;BME280;74110;45.660;25.582;2023-11-22T00:32:00;94682.08;;;6.66;75.47
84026;BME280;74110;45.660;25.582;2023-11-22T00:34:30;94680.27;;;6.67;75.06
84026;BME280;74110;45.660;25.582;2023-11-22T00:36:59;94678.41;;;6.72;74.79
84026;BME280;74110;45.660;25.582;2023-11-22T00:39:27;94679.38;;;6.75;74.66
84026;BME280;74110;45.660;25.582;2023-11-22T00:41:56;94680.45;;;6.81;74.14
84026;BME280;74110;45.660;25.582;2023-11-22T00:44:26;94681.33;;;6.83;74.33
84026;BME280;74110;45.660;25.582;2023-11-22T00:46:56;94681.77;;;6.81;74.42
84026;BME280;74110;45.660;25.582;2023-11-22T00:49:26;94682.89;;;6.80;74.25
84026;BME280;74110;45.660;25.582;2023-11-22T00:51:55;94684.70;;;6.83;74.47
84026;BME280;74110;45.660;25.582;2023-11-22T00:54:24;94686.03;;;6.90;74.65
84026;BME280;74110;45.660;25.582;2023-11-22T00:56:55;94680.52;;;6.98;74.62
84026;BME280;74110;45.660;25.582;2023-11-22T00:59:23;94680.81;;;7.04;74.27
84026;BME280;74110;45.660;25.582;2023-11-22T01:01:52;94679.55;;;7.11;73.80
84026;BME280;74110;45.660;25.582;2023-11-22T01:04:21;94675.73;;;7.12;73.80
84026;BME280;74110;45.660;25.582;2023-11-22T01:06:50;94673.15;;;7.03;74.09
84026;BME280;74110;45.660;25.582;2023-11-22T01:09:20;94668.88;;;6.98;74.06
84026;BME280;74110;45.660;25.582;2023-11-22T01:11:51;94665.06;;;6.97;74.17
84026;BME280;74110;45.660;25.582;2023-11-22T01:14:20;94666.85;;;7.02;74.41
84026;BME280;74110;45.660;25.582;2023-11-22T01:16:49;94667.21;;;7.05;74.58
84026;BME280;74110;45.660;25.582;2023-11-22T01:19:19;94667.48;;;7.02;74.56
84026;BME280;74110;45.660;25.582;2023-11-22T01:21:48;94665.02;;;6.97;74.46
84026;BME280;74110;45.660;25.582;2023-11-22T01:24:17;94660.63;;;7.00;74.35
84026;BME280;74110;45.660;25.582;2023-11-22T01:26:47;94663.35;;;6.99;74.81
84026;BME280;74110;45.660;25.582;2023-11-22T01:29:15;94657.70;;;6.95;74.37
84026;BME280;74110;45.660;25.582;2023-11-22T01:31:43;94657.60;;;6.94;74.19
84026;BME280;74110;45.660;25.582;2023-11-22T01:34:12;94657.55;;;6.91;74.56
84026;BME280;74110;45.660;25.582;2023-11-22T01:36:42;94657.80;;;6.69;75.15
84026;BME280;74110;45.660;25.582;2023-11-22T01:39:12;94660.44;;;6.53;75.40
84026;BME280;74110;45.660;25.582;2023-11-22T01:41:45;94663.34;;;6.25;77.08
84026;BME280;74110;45.660;25.582;2023-11-22T01:44:16;94662.84;;;6.04;77.92
84026;BME280;74110;45.660;25.582;2023-11-22T01:46:46;94661.98;;;5.80;79.12
84026;BME280;74110;45.660;25.582;2023-11-22T01:49:18;94663.42;;;5.62;79.96
84026;BME280;74110;45.660;25.582;2023-11-22T01:51:47;94658.05;;;5.56;80.32
84026;BME280;74110;45.660;25.582;2023-11-22T01:54:18;94661.23;;;5.54;80.35
84026;BME280;74110;45.660;25.582;2023-11-22T01:56:48;94658.56;;;5.51;80.59
84026;BME280;74110;45.660;25.582;2023-11-22T01:59:17;94657.98;;;5.58;80.25
84026;BME280;74110;45.660;25.582;2023-11-22T02:01:48;94654.61;;;5.63;79.91
84026;BME280;74110;45.660;25.582;2023-11-22T02:04:18;94654.73;;;5.66;79.68
84026;BME280;74110;45.660;25.582;2023-11-22T02:06:51;94657.36;;;5.71;79.20
84026;BME280;74110;45.660;25.582;2023-11-22T02:09:20;94659.42;;;5.76;78.46
84026;BME280;74110;45.660;25.582;2023-11-22T02:11:49;94656.38;;;5.83;78.93
84026;BME280;74110;45.660;25.582;2023-11-22T02:14:18;94655.36;;;5.85;79.22
84026;BME280;74110;45.660;25.582;2023-11-22T02:16:49;94654.96;;;5.88;78.87
84026;BME280;74110;45.660;25.582;2023-11-22T02:19:19;94653.92;;;5.99;78.00
84026;BME280;74110;45.660;25.582;2023-11-22T02:21:49;94656.50;;;6.10;77.48
84026;BME280;74110;45.660;25.582;2023-11-22T02:24:17;94659.72;;;6.19;77.20
84026;BME280;74110;45.660;25.582;2023-11-22T02:26:45;94661.73;;;6.26;76.93
84026;BME280;74110;45.660;25.582;2023-11-22T02:29:15;94663.55;;;6.29;77.35
84026;BME280;74110;45.660;25.582;2023-11-22T02:31:45;94665.77;;;6.30;77.47
84026;BME280;74110;45.660;25.582;2023-11-22T02:34:14;94663.24;;;6.32;77.42
84026;BME280;74110;45.660;25.582;2023-11-22T02:36:45;94668.35;;;6.38;77.45
84026;BME280;74110;45.660;25.582;2023-11-22T02:39:32;94667.39;;;6.47;77.05
84026;BME280;74110;45.660;25.582;2023-11-22T02:42:05;94665.08;;;6.55;76.90
84026;BME280;74110;45.660;25.582;2023-11-22T02:44:35;94664.55;;;6.55;76.85
84026;BME280;74110;45.660;25.582;2023-11-22T02:47:04;94666.29;;;6.55;76.74
84026;BME280;74110;45.660;25.582;2023-11-22T02:49:33;94668.75;;;6.56;76.88
84026;BME280;74110;45.660;25.582;2023-11-22T02:52:04;94668.45;;;6.56;76.08
84026;BME280;74110;45.660;25.582;2023-11-22T02:54:34;94666.15;;;6.60;76.27
84026;BME280;74110;45.660;25.582;2023-11-22T02:57:04;94671.31;;;6.66;76.54
84026;BME280;74110;45.660;25.582;2023-11-22T02:59:33;94672.71;;;6.71;76.51
84026;BME280;74110;45.660;25.582;2023-11-22T03:02:03;94673.73;;;6.75;76.14
84026;BME280;74110;45.660;25.582;2023-11-22T03:04:32;94677.56;;;6.76;76.06
84026;BME280;74110;45.660;25.582;2023-11-22T03:07:00;94675.98;;;6.72;76.27
84026;BME280;74110;45.660;25.582;2023-11-22T03:09:30;94674.68;;;6.67;76.18
84026;BME280;74110;45.660;25.582;2023-11-22T03:11:59;94674.15;;;6.67;76.07
84026;BME280;74110;45.660;25.582;2023-11-22T03:14:28;94675.34;;;6.68;76.14
84026;BME280;74110;45.660;25.582;2023-11-22T03:16:58;94680.02;;;6.71;76.43
84026;BME280;74110;45.660;25.582;2023-11-22T03:19:27;94679.45;;;6.73;76.77
84026;BME280;74110;45.660;25.582;2023-11-22T03:21:57;94679.67;;;6.72;76.49
84026;BME280;74110;45.660;25.582;2023-11-22T03:24:25;94679.50;;;6.73;76.51
84026;BME280;74110;45.660;25.582;2023-11-22T03:26:54;94679.13;;;6.77;76.32
84026;BME280;74110;45.660;25.582;2023-11-22T03:29:25;94680.70;;;6.82;76.21
84026;BME280;74110;45.660;25.582;2023-11-22T03:31:56;94683.10;;;6.84;76.16
84026;BME280;74110;45.660;25.582;2023-11-22T03:34:25;94683.23;;;6.79;76.27
84026;BME280;74110;45.660;25.582;2023-11-22T03:36:54;94679.50;;;6.77;75.89
84026;BME280;74110;45.660;25.582;2023-11-22T03:39:23;94681.27;;;6.79;75.72
84026;BME280;74110;45.660;25.582;2023-11-22T03:41:53;94678.58;;;6.79;76.34
84026;BME280;74110;45.660;25.582;2023-11-22T03:44:21;94678.52;;;6.81;76.38
84026;BME280;74110;45.660;25.582;2023-11-22T03:46:51;94681.13;;;6.85;76.55
84026;BME280;74110;45.660;25.582;2023-11-22T03:49:20;94684.98;;;6.90;76.09
84026;BME280;74110;45.660;25.582;2023-11-22T03:51:50;94686.52;;;6.89;76.12
84026;BME280;74110;45.660;25.582;2023-11-22T03:54:19;94689.92;;;6.88;75.88
84026;BME280;74110;45.660;25.582;2023-11-22T03:56:48;94691.89;;;6.87;76.02
84026;BME280;74110;45.660;25.582;2023-11-22T03:59:18;94702.36;;;6.86;76.09
84026;BME280;74110;45.660;25.582;2023-11-22T04:01:47;94705.20;;;6.84;75.69
84026;BME280;74110;45.660;25.582;2023-11-22T04:04:16;94706.25;;;6.83;75.86
84026;BME280;74110;45.660;25.582;2023-11-22T04:06:46;94707.20;;;6.84;76.38
84026;BME280;74110;45.660;25.582;2023-11-22T04:09:16;94708.30;;;6.89;76.32
84026;BME280;74110;45.660;25.582;2023-11-22T04:11:49;94714.41;;;6.86;76.64
84026;BME280;74110;45.660;25.582;2023-11-22T04:14:19;94711.81;;;6.79;76.92
84026;BME280;74110;45.660;25.582;2023-11-22T04:16:50;94713.23;;;6.79;76.43
84026;BME280;74110;45.660;25.582;2023-11-22T04:19:20;94713.45;;;6.87;76.38
84026;BME280;74110;45.660;25.582;2023-11-22T04:21:49;94715.84;;;6.90;76.01
84026;BME280;74110;45.660;25.582;2023-11-22T04:24:18;94721.12;;;6.95;75.61
84026;BME280;74110;45.660;25.582;2023-11-22T04:26:47;94722.55;;;6.97;75.51
84026;BME280;74110;45.660;25.582;2023-11-22T04:29:17;94726.21;;;7.00;75.79
84026;BME280;74110;45.660;25.582;2023-11-22T04:31:46;94733.17;;;7.05;75.99
84026;BME280;74110;45.660;25.582;2023-11-22T04:34:14;94726.05;;;7.09;75.91
84026;BME280;74110;45.660;25.582;2023-11-22T04:36:43;94726.60;;;7.11;75.99
84026;BME280;74110;45.660;25.582;2023-11-22T04:39:15;94723.46;;;7.05;76.71
84026;BME280;74110;45.660;25.582;2023-11-22T04:41:43;94728.42;;;7.01;76.35
84026;BME280;74110;45.660;25.582;2023-11-22T04:44:11;94727.63;;;7.02;76.44
84026;BME280;74110;45.660;25.582;2023-11-22T04:46:40;94730.04;;;6.95;77.06
84026;BME280;74110;45.660;25.582;2023-11-22T04:49:10;94728.40;;;6.91;76.53
84026;BME280;74110;45.660;25.582;2023-11-22T04:51:39;94736.80;;;6.83;76.82
84026;BME280;74110;45.660;25.582;2023-11-22T04:54:08;94736.88;;;6.77;77.18
84026;BME280;74110;45.660;25.582;2023-11-22T04:56:38;94745.11;;;6.73;77.27
84026;BME280;74110;45.660;25.582;2023-11-22T04:59:06;94743.66;;;6.71;77.50
84026;BME280;74110;45.660;25.582;2023-11-22T05:01:36;94742.55;;;6.67;78.00
84026;BME280;74110;45.660;25.582;2023-11-22T05:04:05;94742.10;;;6.62;78.40
84026;BME280;74110;45.660;25.582;2023-11-22T05:06:34;94748.20;;;6.58;78.50
84026;BME280;74110;45.660;25.582;2023-11-22T05:09:03;94747.38;;;6.52;78.66
84026;BME280;74110;45.660;25.582;2023-11-22T05:11:34;94751.52;;;6.45;78.78
84026;BME280;74110;45.660;25.582;2023-11-22T05:14:04;94748.46;;;6.41;78.69
84026;BME280;74110;45.660;25.582;2023-11-22T05:16:33;94749.25;;;6.40;78.53
84026;BME280;74110;45.660;25.582;2023-11-22T05:19:03;94754.95;;;6.47;78.23
84026;BME280;74110;45.660;25.582;2023-11-22T05:21:32;94757.19;;;6.53;78.06
84026;BME280;74110;45.660;25.582;2023-11-22T05:24:02;94760.16;;;6.57;78.10
84026;BME280;74110;45.660;25.582;2023-11-22T05:26:31;94768.09;;;6.56;78.02
84026;BME280;74110;45.660;25.582;2023-11-22T05:29:01;94767.98;;;6.57;77.88
84026;BME280;74110;45.660;25.582;2023-11-22T05:31:33;94770.66;;;6.58;77.55
84026;BME280;74110;45.660;25.582;2023-11-22T05:34:01;94770.52;;;6.60;77.75
84026;BME280;74110;45.660;25.582;2023-11-22T05:36:30;94770.81;;;6.63;77.99
84026;BME280;74110;45.660;25.582;2023-11-22T05:38:59;94769.86;;;6.67;77.57
84026;BME280;74110;45.660;25.582;2023-11-22T05:41:28;94773.71;;;6.71;77.41
84026;BME280;74110;45.660;25.582;2023-11-22T05:43:57;94776.59;;;6.79;77.41
84026;BME280;74110;45.660;25.582;2023-11-22T05:46:27;94778.92;;;6.87;77.62
84026;BME280;74110;45.660;25.582;2023-11-22T05:48:56;94785.36;;;6.91;77.13
84026;BME280;74110;45.660;25.582;2023-11-22T05:51:25;94790.49;;;6.96;76.64
84026;BME280;74110;45.660;25.582;2023-11-22T05:53:54;94794.21;;;6.98;76.23
84026;BME280;74110;45.660;25.582;2023-11-22T05:56:23;94802.11;;;7.00;75.98
84026;BME280;74110;45.660;25.582;2023-11-22T05:58:54;94810.89;;;7.04;76.33
84026;BME280;74110;45.660;25.582;2023-11-22T06:01:22;94813.63;;;7.09;76.71
84026;BME280;74110;45.660;25.582;2023-11-22T06:03:52;94819.09;;;7.15;76.68
84026;BME280;74110;45.660;25.582;2023-11-22T06:06:22;94823.67;;;7.20;76.25
84026;BME280;74110;45.660;25.582;2023-11-22T06:08:53;94823.52;;;7.22;75.89
84026;BME280;74110;45.660;25.582;2023-11-22T06:11:23;94825.20;;;7.21;75.61
84026;BME280;74110;45.660;25.582;2023-11-22T06:13:55;94832.20;;;7.21;75.56
84026;BME280;74110;45.660;25.582;2023-11-22T06:16:23;94837.29;;;7.23;75.99
84026;BME280;74110;45.660;25.582;2023-11-22T06:18:52;94838.42;;;7.26;75.95
84026;BME280;74110;45.660;25.582;2023-11-22T06:21:21;94839.89;;;7.25;75.52
84026;BME280;74110;45.660;25.582;2023-11-22T06:23:55;94844.15;;;7.25;75.19
84026;BME280;74110;45.660;25.582;2023-11-22T06:26:27;94843.09;;;7.21;75.33
84026;BME280;74110;45.660;25.582;2023-11-22T06:28:57;94840.91;;;7.12;75.47
84026;BME280;74110;45.660;25.582;2023-11-22T06:31:25;94847.07;;;7.11;75.89
84026;BME280;74110;45.660;25.582;2023-11-22T06:33:55;94852.67;;;7.15;76.18
84026;BME280;74110;45.660;25.582;2023-11-22T06:36:24;94863.52;;;7.23;76.11
84026;BME280;74110;45.660;25.582;2023-11-22T06:38:56;94868.22;;;7.27;75.63
84026;BME280;74110;45.660;25.582;2023-11-22T06:41:24;94870.81;;;7.27;75.30
84026;BME280;74110;45.660;25.582;2023-11-22T06:43:53;94879.95;;;7.23;75.01
84026;BME280;74110;45.660;25.582;2023-11-22T06:46:24;94884.45;;;7.18;75.23
84026;BME280;74110;45.660;25.582;2023-11-22T06:48:56;94888.34;;;7.20;75.84
84026;BME280;74110;45.660;25.582;2023-11-22T06:51:25;94886.66;;;7.23;75.92
84026;BME280;74110;45.660;25.582;2023-11-22T06:53:55;94888.81;;;7.25;75.98
84026;BME280;74110;45.660;25.582;2023-11-22T06:56:26;94894.57;;;7.25;75.90
84026;BME280;74110;45.660;25.582;2023-11-22T06:58:56;94898.40;;;7.32;75.73
84026;BME280;74110;45.660;25.582;2023-11-22T07:01:27;94902.01;;;7.35;75.20
84026;BME280;74110;45.660;25.582;2023-11-22T07:03:59;94902.44;;;7.39;75.57
84026;BME280;74110;45.660;25.582;2023-11-22T07:06:32;94903.49;;;7.40;75.49
84026;BME280;74110;45.660;25.582;2023-11-22T07:09:01;94902.05;;;7.36;75.10
84026;BME280;74110;45.660;25.582;2023-11-22T07:11:30;94905.48;;;7.28;75.16
84026;BME280;74110;45.660;25.582;2023-11-22T07:13:59;94912.56;;;7.25;74.97
84026;BME280;74110;45.660;25.582;2023-11-22T07:16:30;94916.66;;;7.22;75.15
84026;BME280;74110;45.660;25.582;2023-11-22T07:19:00;94918.65;;;7.24;75.55
84026;BME280;74110;45.660;25.582;2023-11-22T07:21:31;94914.77;;;7.21;76.17
84026;BME280;74110;45.660;25.582;2023-11-22T07:24:00;94915.98;;;7.21;76.40
84026;BME280;74110;45.660;25.582;2023-11-22T07:26:31;94917.27;;;7.28;75.93
84026;BME280;74110;45.660;25.582;2023-11-22T07:29:00;94922.52;;;7.22;76.70
84026;BME280;74110;45.660;25.582;2023-11-22T07:31:29;94921.77;;;7.23;76.75
84026;BME280;74110;45.660;25.582;2023-11-22T07:33:57;94925.16;;;7.28;76.63
84026;BME280;74110;45.660;25.582;2023-11-22T07:36:27;94925.10;;;7.23;76.57
84026;BME280;74110;45.660;25.582;2023-11-22T07:38:57;94931.88;;;7.31;76.48
84026;BME280;74110;45.660;25.582;2023-11-22T07:41:26;94932.27;;;7.37;76.70
84026;BME280;74110;45.660;25.582;2023-11-22T07:43:56;94938.70;;;7.41;76.85
84026;BME280;74110;45.660;25.582;2023-11-22T07:46:29;94935.31;;;7.46;76.05
84026;BME280;74110;45.660;25.582;2023-11-22T07:48:58;94935.62;;;7.55;75.51
84026;BME280;74110;45.660;25.582;2023-11-22T07:51:27;94934.85;;;7.57;75.56
84026;BME280;74110;45.660;25.582;2023-11-22T07:53:58;94935.55;;;7.64;75.54
84026;BME280;74110;45.660;25.582;2023-11-22T07:56:29;94943.77;;;7.62;75.76
84026;BME280;74110;45.660;25.582;2023-11-22T07:59:01;94948.60;;;7.69;75.56
84026;BME280;74110;45.660;25.582;2023-11-22T08:01:31;94951.98;;;7.78;75.65
84026;BME280;74110;45.660;25.582;2023-11-22T08:04:03;94952.78;;;7.77;74.45
84026;BME280;74110;45.660;25.582;2023-11-22T08:06:34;94959.25;;;7.80;74.72
84026;BME280;74110;45.660;25.582;2023-11-22T08:09:05;94956.69;;;7.86;73.81
84026;BME280;74110;45.660;25.582;2023-11-22T08:11:39;94956.33;;;7.89;73.78
84026;BME280;74110;45.660;25.582;2023-11-22T08:14:10;94956.72;;;8.00;73.71
84026;BME280;74110;45.660;25.582;2023-11-22T08:16:41;94960.63;;;8.04;72.47
84026;BME280;74110;45.660;25.582;2023-11-22T08:19:11;94966.58;;;8.13;72.93
84026;BME280;74110;45.660;25.582;2023-11-22T08:21:43;94968.44;;;8.25;73.73
84026;BME280;74110;45.660;25.582;2023-11-22T08:24:12;94965.64;;;8.41;73.66
84026;BME280;74110;45.660;25.582;2023-11-22T08:26:41;94967.31;;;8.54;72.74
84026;BME280;74110;45.660;25.582;2023-11-22T08:29:10;94972.37;;;8.62;71.54
84026;BME280;74110;45.660;25.582;2023-11-22T08:31:40;94975.86;;;8.56;70.53
84026;BME280;74110;45.660;25.582;2023-11-22T08:34:09;94976.08;;;8.62;71.74
84026;BME280;74110;45.660;25.582;2023-11-22T08:36:40;94976.42;;;8.68;71.59
84026;BME280;74110;45.660;25.582;2023-11-22T08:39:08;94981.80;;;8.72;71.17
84026;BME280;74110;45.660;25.582;2023-11-22T08:41:37;94984.13;;;8.76;70.74
84026;BME280;74110;45.660;25.582;2023-11-22T08:44:06;94985.80;;;8.71;70.70
84026;BME280;74110;45.660;25.582;2023-11-22T08:46:35;94985.31;;;8.68;70.37
84026;BME280;74110;45.660;25.582;2023-11-22T08:49:04;94986.32;;;8.48;69.59
84026;BME280;74110;45.660;25.582;2023-11-22T08:51:34;94986.18;;;8.47;70.13
84026;BME280;74110;45.660;25.582;2023-11-22T08:54:03;94991.78;;;8.54;70.87
84026;BME280;74110;45.660;25.582;2023-11-22T08:56:32;94992.41;;;8.60;70.58
84026;BME280;74110;45.660;25.582;2023-11-22T08:59:03;94992.73;;;8.61;70.39
84026;BME280;74110;45.660;25.582;2023-11-22T09:01:34;94992.90;;;8.70;70.30
84026;BME280;74110;45.660;25.582;2023-11-22T09:04:03;94990.70;;;8.63;69.28
84026;BME280;74110;45.660;25.582;2023-11-22T09:06:33;94991.88;;;8.58;69.99
84026;BME280;74110;45.660;25.582;2023-11-22T09:09:03;94989.17;;;8.69;70.58
84026;BME280;74110;45.660;25.582;2023-11-22T09:11:32;94986.27;;;8.81;70.35
84026;BME280;74110;45.660;25.582;2023-11-22T09:14:02;94991.95;;;8.94;69.97
84026;BME280;74110;45.660;25.582;2023-11-22T09:16:37;94993.89;;;9.01;69.73
84026;BME280;74110;45.660;25.582;2023-11-22T09:19:07;94997.65;;;9.06;69.76
84026;BME280;74110;45.660;25.582;2023-11-22T09:21:36;94997.09;;;9.02;69.25
84026;BME280;74110;45.660;25.582;2023-11-22T09:24:05;94998.30;;;9.03;69.64
84026;BME280;74110;45.660;25.582;2023-11-22T09:26:36;95001.39;;;8.86;68.78
84026;BME280;74110;45.660;25.582;2023-11-22T09:29:05;95005.70;;;8.89;69.12
84026;BME280;74110;45.660;25.582;2023-11-22T09:31:35;95009.16;;;8.90;69.57
84026;BME280;74110;45.660;25.582;2023-11-22T09:34:03;95005.31;;;8.70;69.47
84026;BME280;74110;45.660;25.582;2023-11-22T09:36:32;95009.02;;;8.73;70.20
84026;BME280;74110;45.660;25.582;2023-11-22T09:39:02;95011.83;;;8.73;70.32
84026;BME280;74110;45.660;25.582;2023-11-22T09:41:32;95016.25;;;8.82;70.15
84026;BME280;74110;45.660;25.582;2023-11-22T09:44:01;95015.94;;;8.86;69.92
84026;BME280;74110;45.660;25.582;2023-11-22T09:46:30;95012.90;;;9.01;70.09
84026;BME280;74110;45.660;25.582;2023-11-22T09:49:06;95014.48;;;9.15;69.40
84026;BME280;74110;45.660;25.582;2023-11-22T09:51:37;95019.46;;;9.20;69.08
84026;BME280;74110;45.660;25.582;2023-11-22T09:54:10;95019.10;;;9.30;68.82
84026;BME280;74110;45.660;25.582;2023-11-22T09:56:42;95016.00;;;9.39;69.19
84026;BME280;74110;45.660;25.582;2023-11-22T09:59:20;95022.12;;;9.49;69.10
84026;BME280;74110;45.660;25.582;2023-11-22T10:01:51;95025.25;;;9.47;68.50
84026;BME280;74110;45.660;25.582;2023-11-22T10:04:23;95025.83;;;9.39;68.29
84026;BME280;74110;45.660;25.582;2023-11-22T10:06:54;95029.50;;;9.38;68.48
84026;BME280;74110;45.660;25.582;2023-11-22T10:09:25;95021.60;;;9.35;68.59
84026;BME280;74110;45.660;25.582;2023-11-22T10:12:01;95020.37;;;9.18;69.08
84026;BME280;74110;45.660;25.582;2023-11-22T10:14:34;95024.05;;;9.17;69.45
84026;BME280;74110;45.660;25.582;2023-11-22T10:17:04;95024.80;;;9.17;69.37
84026;BME280;74110;45.660;25.582;2023-11-22T10:19:35;95028.70;;;9.02;69.30
84026;BME280;74110;45.660;25.582;2023-11-22T10:22:06;95030.69;;;8.97;69.75
84026;BME280;74110;45.660;25.582;2023-11-22T10:24:39;95024.03;;;9.08;69.34
84026;BME280;74110;45.660;25.582;2023-11-22T10:27:10;95024.13;;;9.12;69.10
84026;BME280;74110;45.660;25.582;2023-11-22T10:29:39;95029.59;;;9.07;69.19
84026;BME280;74110;45.660;25.582;2023-11-22T10:32:08;95033.39;;;9.13;69.15
84026;BME280;74110;45.660;25.582;2023-11-22T10:34:39;95033.96;;;9.22;69.34
84026;BME280;74110;45.660;25.582;2023-11-22T10:37:10;95036.45;;;9.32;68.58
84026;BME280;74110;45.660;25.582;2023-11-22T10:39:39;95042.33;;;9.36;67.21
84026;BME280;74110;45.660;25.582;2023-11-22T10:42:13;95046.66;;;9.36;66.92
84026;BME280;74110;45.660;25.582;2023-11-22T10:44:43;95040.10;;;9.21;66.19
84026;BME280;74110;45.660;25.582;2023-11-22T10:47:15;95042.08;;;9.11;66.98
84026;BME280;74110;45.660;25.582;2023-11-22T10:49:47;95043.01;;;9.06;67.06
84026;BME280;74110;45.660;25.582;2023-11-22T10:52:18;95047.85;;;9.01;66.73
84026;BME280;74110;45.660;25.582;2023-11-22T10:54:57;95053.27;;;8.78;66.59
84026;BME280;74110;45.660;25.582;2023-11-22T10:57:40;95056.58;;;8.62;66.67
84026;BME280;74110;45.660;25.582;2023-11-22T11:00:14;95070.38;;;8.61;67.14
84026;BME280;74110;45.660;25.582;2023-11-22T11:02:46;95065.55;;;8.51;66.85
84026;BME280;74110;45.660;25.582;2023-11-22T11:05:21;95066.69;;;8.56;67.09
84026;BME280;74110;45.660;25.582;2023-11-22T11:08:08;95072.94;;;8.63;67.48
84026;BME280;74110;45.660;25.582;2023-11-22T11:10:40;95071.84;;;8.66;67.59
84026;BME280;74110;45.660;25.582;2023-11-22T11:13:12;95072.81;;;8.75;66.70
84026;BME280;74110;45.660;25.582;2023-11-22T11:15:48;95071.76;;;8.79;66.46
84026;BME280;74110;45.660;25.582;2023-11-22T11:18:18;95071.86;;;8.82;66.57
84026;BME280;74110;45.660;25.582;2023-11-22T11:20:53;95071.60;;;8.86;67.12
84026;BME280;74110;45.660;25.582;2023-11-22T11:23:26;95070.15;;;8.90;66.44
84026;BME280;74110;45.660;25.582;2023-11-22T11:25:57;95072.84;;;8.90;65.70
84026;BME280;74110;45.660;25.582;2023-11-22T11:28:43;95080.77;;;8.89;65.89
84026;BME280;74110;45.660;25.582;2023-11-22T11:31:21;95087.06;;;8.83;66.05
84026;BME280;74110;45.660;25.582;2023-11-22T11:33:56;95085.24;;;8.84;66.03
84026;BME280;74110;45.660;25.582;2023-11-22T11:36:31;95084.16;;;8.82;65.47
84026;BME280;74110;45.660;25.582;2023-11-22T11:39:05;95087.01;;;8.79;65.76
84026;BME280;74110;45.660;25.582;2023-11-22T11:41:41;95085.03;;;8.74;64.89
84026;BME280;74110;45.660;25.582;2023-11-22T11:44:10;95085.59;;;8.67;65.00
84026;BME280;74110;45.660;25.582;2023-11-22T11:46:43;95085.93;;;8.60;65.88
84026;BME280;74110;45.660;25.582;2023-11-22T11:49:14;95090.52;;;8.61;66.01
84026;BME280;74110;45.660;25.582;2023-11-22T11:51:43;95091.82;;;8.60;65.72
84026;BME280;74110;45.660;25.582;2023-11-22T11:54:12;95091.56;;;8.58;65.94
84026;BME280;74110;45.660;25.582;2023-11-22T11:56:46;95096.00;;;8.59;65.50
84026;BME280;74110;45.660;25.582;2023-11-22T11:59:18;95086.25;;;8.55;66.01
84026;BME280;74110;45.660;25.582;2023-11-22T12:01:52;95087.02;;;8.57;65.72
84026;BME280;74110;45.660;25.582;2023-11-22T12:04:23;95086.05;;;8.55;65.69
84026;BME280;74110;45.660;25.582;2023-11-22T12:06:53;95083.90;;;8.53;65.71
84026;BME280;74110;45.660;25.582;2023-11-22T12:09:24;95089.59;;;8.55;66.83
84026;BME280;74110;45.660;25.582;2023-11-22T12:12:00;95095.61;;;8.60;66.64
84026;BME280;74110;45.660;25.582;2023-11-22T12:14:31;95095.04;;;8.63;65.99
84026;BME280;74110;45.660;25.582;2023-11-22T12:17:03;95098.97;;;8.59;65.93
84026;BME280;74110;45.660;25.582;2023-11-22T12:19:35;95103.89;;;8.59;65.96
84026;BME280;74110;45.660;25.582;2023-11-22T12:22:05;95104.87;;;8.58;66.11
84026;BME280;74110;45.660;25.582;2023-11-22T12:24:34;95104.40;;;8.56;65.66
84026;BME280;74110;45.660;25.582;2023-11-22T12:27:04;95110.39;;;8.49;65.61
84026;BME280;74110;45.660;25.582;2023-11-22T12:29:39;95108.52;;;8.42;65.85
84026;BME280;74110;45.660;25.582;2023-11-22T12:32:12;95114.08;;;8.39;66.87
84026;BME280;74110;45.660;25.582;2023-11-22T12:34:40;95115.36;;;8.42;66.76
84026;BME280;74110;45.660;25.582;2023-11-22T12:37:10;95115.40;;;8.40;66.75
84026;BME280;74110;45.660;25.582;2023-11-22T12:39:39;95114.41;;;8.36;66.71
84026;BME280;74110;45.660;25.582;2023-11-22T12:42:13;95117.24;;;8.32;66.51
84026;BME280;74110;45.660;25.582;2023-11-22T12:44:52;95117.88;;;8.28;66.15
84026;BME280;74110;45.660;25.582;2023-11-22T12:47:36;95117.12;;;8.24;66.11
84026;BME280;74110;45.660;25.582;2023-11-22T12:50:07;95121.06;;;8.20;66.27
84026;BME280;74110;45.660;25.582;2023-11-22T12:52:38;95123.47;;;8.14;66.36
84026;BME280;74110;45.660;25.582;2023-11-22T12:55:08;95126.32;;;8.14;66.96
84026;BME280;74110;45.660;25.582;2023-11-22T12:57:37;95126.70;;;8.13;67.15
84026;BME280;74110;45.660;25.582;2023-11-22T13:00:07;95129.08;;;8.18;67.26
84026;BME280;74110;45.660;25.582;2023-11-22T13:02:36;95133.88;;;8.20;66.59
84026;BME280;74110;45.660;25.582;2023-11-22T13:05:20;95139.23;;;8.23;66.62
84026;BME280;74110;45.660;25.582;2023-11-22T13:07:50;95138.13;;;8.21;66.08
84026;BME280;74110;45.660;25.582;2023-11-22T13:10:20;95142.37;;;8.21;66.27
84026;BME280;74110;45.660;25.582;2023-11-22T13:12:54;95145.73;;;8.17;66.17
84026;BME280;74110;45.660;25.582;2023-11-22T13:15:23;95145.55;;;8.13;66.15
84026;BME280;74110;45.660;25.582;2023-11-22T13:17:55;95146.30;;;8.04;65.84